Time;durP1;ratioP1;P1;durP2;ratioP2;P2;SDS_P1;SDS_P2;PMS_P1;PMS_P2;Temp;Humidity;BMP_temperature;BMP_pressure;BME280_temperature;BME280_humidity;BME280_pressure;Samples;Min_cycle;Max_cycle;Signal;HPM_P1;HPM_P2
2023/10/17 00:01:35;;;;;;;19.80;14.13;;;5.90;73.90;;;;;;5049862;28;20040;-70
2023/10/17 00:06:47;;;;;;;18.38;13.98;;;5.80;74.10;;;;;;5053850;28;20469;-70
2023/10/17 00:09:24;;;;;;;21.98;15.23;;;5.80;74.10;;;;;;5053707;28;20481;-71
2023/10/17 00:15:20;;;;;;;17.83;13.82;;;5.80;74.30;;;;;;5053245;28;20090;-72
2023/10/17 00:17:17;;;;;;;17.83;14.15;;;5.80;74.30;;;;;;5049430;28;20036;-80
2023/10/17 00:19:44;;;;;;;19.67;14.48;;;5.80;74.20;;;;;;5053970;28;20071;-80
2023/10/17 00:22:10;;;;;;;17.35;13.73;;;5.80;74.20;;;;;;5053423;28;20462;-72
2023/10/17 00:24:36;;;;;;;18.15;14.32;;;5.80;74.10;;;;;;5053247;28;20055;-71
2023/10/17 00:27:06;;;;;;;17.98;13.73;;;5.80;73.90;;;;;;5053380;28;20553;-72
2023/10/17 00:29:33;;;;;;;19.83;13.68;;;5.80;74.20;;;;;;5051959;28;20075;-72
2023/10/17 00:31:58;;;;;;;17.88;13.40;;;5.80;74.10;;;;;;5053310;28;20478;-70
2023/10/17 00:34:25;;;;;;;16.80;12.77;;;5.80;74.10;;;;;;5053072;28;20063;-70
2023/10/17 00:36:50;;;;;;;15.70;14.00;;;5.90;74.10;;;;;;5052021;28;20401;-77
2023/10/17 00:39:31;;;;;;;20.05;15.57;;;5.90;73.80;;;;;;5053251;28;20043;-81
2023/10/17 00:44:33;;;;;;;22.10;15.27;;;5.80;74.30;;;;;;5053556;28;20044;-71
2023/10/17 00:47:00;;;;;;;21.17;16.23;;;5.70;74.80;;;;;;5053278;28;20029;-76
2023/10/17 00:49:29;;;;;;;23.42;15.10;;;5.60;75.30;;;;;;5053579;28;20131;-71
2023/10/17 00:51:56;;;;;;;23.05;15.07;;;5.50;75.90;;;;;;5051741;28;20025;-76
2023/10/17 00:54:26;;;;;;;22.10;14.73;;;5.50;75.90;;;;;;5051828;28;20021;-78
2023/10/17 00:56:55;;;;;;;21.85;14.68;;;5.50;75.90;;;;;;5052912;28;20033;-78
2023/10/17 00:59:24;;;;;;;25.00;14.63;;;5.50;75.90;;;;;;5053018;28;20017;-76
2023/10/17 01:01:51;;;;;;;22.58;13.77;;;5.40;76.10;;;;;;5053465;28;20033;-73
2023/10/17 01:04:22;;;;;;;20.73;15.80;;;5.40;76.00;;;;;;5051648;28;20027;-75
2023/10/17 01:06:54;;;;;;;24.65;14.70;;;5.40;76.20;;;;;;5053176;28;20025;-75
2023/10/17 01:09:24;;;;;;;22.20;16.33;;;5.40;76.30;;;;;;5052895;28;20094;-78
2023/10/17 01:11:50;;;;;;;21.15;15.90;;;5.40;76.40;;;;;;5052819;28;20025;-74
2023/10/17 01:14:18;;;;;;;22.25;15.55;;;5.30;76.70;;;;;;5052904;28;20021;-72
2023/10/17 01:16:51;;;;;;;22.17;15.57;;;5.20;77.00;;;;;;5052873;28;20072;-81
2023/10/17 01:19:21;;;;;;;23.48;15.25;;;5.20;77.10;;;;;;5052747;28;20028;-82
2023/10/17 01:21:50;;;;;;;22.92;14.52;;;5.20;77.20;;;;;;5052905;28;20080;-81
2023/10/17 01:24:16;;;;;;;23.85;14.35;;;5.20;77.30;;;;;;5052745;28;20047;-81
2023/10/17 01:26:45;;;;;;;23.48;14.18;;;5.20;77.30;;;;;;5053734;28;20090;-78
2023/10/17 01:29:11;;;;;;;24.08;13.73;;;5.30;77.20;;;;;;5052813;28;20108;-80
2023/10/17 01:31:43;;;;;;;21.92;14.80;;;5.20;77.10;;;;;;5052870;28;20025;-80
2023/10/17 01:34:11;;;;;;;25.13;14.65;;;5.20;77.20;;;;;;5052485;28;20049;-81
2023/10/17 01:36:40;;;;;;;24.48;16.73;;;5.20;77.20;;;;;;5053383;28;20040;-81
2023/10/17 01:39:08;;;;;;;23.05;17.38;;;5.20;77.20;;;;;;5056661;28;20021;-81
2023/10/17 01:41:35;;;;;;;24.80;18.02;;;5.20;77.00;;;;;;5056920;28;20090;-80
2023/10/17 01:44:01;;;;;;;24.42;16.88;;;5.20;77.10;;;;;;5056398;28;20021;-79
2023/10/17 01:46:30;;;;;;;25.88;15.90;;;5.10;77.20;;;;;;5054820;28;20029;-82
2023/10/17 01:48:59;;;;;;;23.95;18.23;;;5.10;77.40;;;;;;5056456;28;20017;-81
2023/10/17 01:51:26;;;;;;;25.83;17.33;;;5.10;77.40;;;;;;5056726;28;20017;-82
2023/10/17 01:53:52;;;;;;;23.42;16.15;;;5.10;77.50;;;;;;5055974;28;20029;-78
2023/10/17 01:56:28;;;;;;;23.25;15.50;;;5.10;77.50;;;;;;5056509;28;20028;-81
2023/10/17 01:58:55;;;;;;;22.92;15.82;;;5.10;77.40;;;;;;5056308;28;20385;-81
2023/10/17 02:01:26;;;;;;;23.45;14.65;;;5.10;77.30;;;;;;5056467;28;20021;-80
2023/10/17 02:03:52;;;;;;;24.25;17.40;;;5.20;77.20;;;;;;5056589;28;20036;-80
2023/10/17 02:06:19;;;;;;;24.10;17.65;;;5.20;77.10;;;;;;5056215;28;20021;-71
2023/10/17 02:08:46;;;;;;;24.23;16.25;;;5.20;77.20;;;;;;5055900;28;20024;-71
2023/10/17 02:11:40;;;;;;;23.70;17.08;;;5.20;77.40;;;;;;5055889;28;20025;-71
2023/10/17 02:13:59;;;;;;;24.95;16.20;;;5.10;77.60;;;;;;5055629;28;20087;-71
2023/10/17 02:16:28;;;;;;;28.45;20.20;;;5.10;77.70;;;;;;5055925;28;20033;-73
2023/10/17 02:18:55;;;;;;;26.73;17.95;;;5.20;77.60;;;;;;5056085;28;20033;-81
2023/10/17 02:21:21;;;;;;;27.90;20.02;;;5.10;77.60;;;;;;5056417;28;20473;-81
2023/10/17 02:23:50;;;;;;;25.95;19.30;;;5.10;77.60;;;;;;5054812;28;20032;-81
2023/10/17 02:26:21;;;;;;;26.13;19.08;;;5.10;77.80;;;;;;5056507;28;20107;-81
2023/10/17 02:28:48;;;;;;;27.38;18.58;;;5.10;77.80;;;;;;5055936;28;20052;-78
2023/10/17 02:31:14;;;;;;;22.65;16.02;;;5.00;77.80;;;;;;5056268;28;20021;-81
2023/10/17 02:33:42;;;;;;;25.75;16.88;;;5.00;78.00;;;;;;5055567;28;20045;-82
2023/10/17 02:36:16;;;;;;;24.67;16.73;;;5.10;78.10;;;;;;5054376;28;20100;-82
2023/10/17 02:38:43;;;;;;;25.40;16.35;;;5.10;77.80;;;;;;5054382;28;20033;-79
2023/10/17 02:41:19;;;;;;;25.10;17.27;;;5.00;77.70;;;;;;5055565;28;20021;-72
2023/10/17 02:43:48;;;;;;;;;;;5.00;77.70;;;;;;5056178;28;20029;-78
2023/10/17 02:46:14;;;;;;;26.33;19.75;;;5.00;77.90;;;;;;5055810;28;19905;-71
2023/10/17 02:48:42;;;;;;;27.70;19.15;;;5.00;78.10;;;;;;5054353;28;20116;-71
2023/10/17 02:51:31;;;;;;;26.80;17.98;;;4.90;78.10;;;;;;5055507;28;20032;-71
2023/10/17 02:53:57;;;;;;;32.50;20.00;;;4.90;78.40;;;;;;5055244;28;20025;-71
2023/10/17 02:56:23;;;;;;;26.17;17.15;;;4.90;78.50;;;;;;5055412;28;20037;-72
2023/10/17 02:59:16;;;;;;;27.60;20.33;;;4.90;78.50;;;;;;5064107;28;20029;-78
2023/10/17 03:01:42;;;;;;;31.30;18.63;;;4.90;78.40;;;;;;5068820;28;20051;-74
2023/10/17 03:04:13;;;;;;;29.30;19.70;;;4.80;78.60;;;;;;5065870;28;20024;-79
2023/10/17 03:06:44;;;;;;;31.15;19.25;;;4.80;78.80;;;;;;5059281;28;20028;-74
2023/10/17 03:09:16;;;;;;;30.90;19.02;;;4.80;78.80;;;;;;5054182;28;20036;-78
2023/10/17 03:12:07;;;;;;;27.95;18.27;;;4.80;78.80;;;;;;5054612;28;20017;-71
2023/10/17 03:17:11;;;;;;;28.38;17.55;;;4.80;78.80;;;;;;5054995;28;20093;-73
2023/10/17 03:19:38;;;;;;;28.80;18.20;;;4.80;78.60;;;;;;5054704;28;20104;-77
2023/10/17 03:24:44;;;;;;;28.83;19.05;;;4.80;78.90;;;;;;5054992;28;20029;-75
2023/10/17 03:27:26;;;;;;;30.15;21.23;;;4.80;78.80;;;;;;5053614;28;20024;-73
2023/10/17 03:29:51;;;;;;;33.08;22.45;;;4.80;78.80;;;;;;5054560;28;20025;-71
2023/10/17 03:32:17;;;;;;;30.92;20.67;;;4.80;78.80;;;;;;5054207;28;20051;-71
2023/10/17 03:34:52;;;;;;;29.55;21.10;;;4.80;79.00;;;;;;5054336;28;20040;-71
2023/10/17 03:39:54;;;;;;;32.28;21.00;;;4.70;79.20;;;;;;5054595;28;20036;-70
2023/10/17 03:45:23;;;;;;;30.27;18.65;;;4.80;79.00;;;;;;5054575;28;20032;-76
2023/10/17 03:47:53;;;;;;;33.72;22.00;;;4.80;79.10;;;;;;5053986;28;20031;-72
2023/10/17 03:53:07;;;;;;;28.08;20.50;;;4.80;79.00;;;;;;5054076;28;20039;-73
2023/10/17 03:55:35;;;;;;;29.73;20.88;;;4.80;79.00;;;;;;5052599;28;20056;-73
2023/10/17 03:58:04;;;;;;;29.23;18.40;;;4.80;78.90;;;;;;5054017;28;20040;-71
2023/10/17 04:00:45;;;;;;;29.27;17.38;;;4.80;79.00;;;;;;5053625;28;20385;-74
2023/10/17 04:03:19;;;;;;;30.35;17.33;;;4.80;79.20;;;;;;5053937;28;20103;-75
2023/10/17 04:05:49;;;;;;;26.17;17.23;;;4.80;80.00;;;;;;5054062;28;20021;-75
2023/10/17 04:08:31;;;;;;;24.77;15.77;;;4.90;79.20;;;;;;5053955;28;20028;-74
2023/10/17 04:11:17;;;;;;;32.42;21.90;;;4.90;79.10;;;;;;5054029;28;20466;-73
2023/10/17 04:13:51;;;;;;;28.92;21.00;;;5.00;78.90;;;;;;5052244;28;20047;-74
2023/10/17 04:16:21;;;;;;;28.83;20.23;;;5.00;78.40;;;;;;5053646;28;20045;-71
2023/10/17 04:19:07;;;;;;;26.77;20.20;;;5.00;78.10;;;;;;5053807;28;20037;-71
2023/10/17 04:21:45;;;;;;;30.88;21.40;;;5.00;78.30;;;;;;5053671;28;20013;-71
2023/10/17 04:24:10;;;;;;;33.65;22.75;;;4.90;78.20;;;;;;5053647;28;20024;-72
2023/10/17 04:26:36;;;;;;;27.08;20.88;;;4.90;78.40;;;;;;5053559;28;20032;-72
2023/10/17 04:29:18;;;;;;;29.38;21.88;;;4.90;78.50;;;;;;5053704;28;20033;-80
2023/10/17 04:31:44;;;;;;;28.92;21.67;;;4.90;78.20;;;;;;5053670;28;20021;-79
2023/10/17 04:34:26;;;;;;;33.28;22.13;;;4.90;78.10;;;;;;5053338;28;20045;-78
2023/10/17 04:36:53;;;;;;;31.08;21.77;;;4.80;78.40;;;;;;5053493;28;20068;-80
2023/10/17 04:39:34;;;;;;;33.42;21.10;;;4.80;78.70;;;;;;5053666;28;20072;-82
2023/10/17 04:44:33;;;;;;;31.52;23.33;;;4.60;79.10;;;;;;5053814;28;20021;-81
2023/10/17 04:49:31;;;;;;;31.02;22.15;;;4.60;79.40;;;;;;5054156;28;20028;-75
2023/10/17 04:54:41;;;;;;;34.42;22.90;;;4.60;79.40;;;;;;5053999;28;20045;-76
2023/10/17 04:57:21;;;;;;;35.40;22.88;;;4.70;79.60;;;;;;5052011;28;20473;-74
2023/10/17 05:07:28;;;;;;;32.00;21.90;;;4.70;79.60;;;;;;5053583;28;20029;-71
2023/10/17 06:18:49;;;;;;;27.92;19.67;;;5.10;73.30;;;;;;5052559;28;20039;-75
2023/10/17 06:21:35;;;;;;;32.60;21.83;;;5.10;74.50;;;;;;5050925;28;20025;-78
2023/10/17 06:24:45;;;;;;;35.47;22.45;;;5.00;75.70;;;;;;5054847;28;20021;-77
2023/10/17 06:32:48;;;;;;;32.22;21.77;;;5.00;77.00;;;;;;5055979;28;20013;-77
2023/10/17 06:35:23;;;;;;;30.48;22.23;;;5.10;77.40;;;;;;5055538;28;20107;-77
2023/10/17 06:37:51;;;;;;;;;;;5.00;77.90;;;;;;5056020;28;20103;-77
2023/10/17 06:40:17;;;;;;;31.45;21.02;;;5.00;79.00;;;;;;5054210;28;19904;-76
2023/10/17 06:42:50;;;;;;;34.95;22.85;;;5.10;78.10;;;;;;5055461;28;20381;-72
2023/10/17 06:45:19;;;;;;;38.17;21.95;;;5.10;77.80;;;;;;5054171;28;20119;-76
2023/10/17 06:47:49;;;;;;;31.95;22.02;;;5.10;77.70;;;;;;5055231;28;20021;-76
2023/10/17 06:55:38;;;;;;;34.17;22.85;;;5.00;78.10;;;;;;5055271;28;20028;-76
2023/10/17 06:58:09;;;;;;;33.75;22.08;;;5.00;78.60;;;;;;5054958;28;20032;-78
2023/10/17 07:03:13;;;;;;;35.73;25.07;;;5.00;78.80;;;;;;5055167;28;20335;-73
2023/10/17 07:05:39;;;;;;;35.90;24.08;;;4.90;80.00;;;;;;5055023;28;20342;-74
2023/10/17 07:08:13;;;;;;;43.17;26.60;;;4.90;79.50;;;;;;5055222;28;20075;-71
2023/10/17 07:10:39;;;;;;;38.78;24.55;;;4.90;79.40;;;;;;5055537;28;20029;-74
2023/10/17 07:13:42;;;;;;;37.85;23.05;;;4.90;79.50;;;;;;5055694;28;20039;-71
2023/10/17 07:16:11;;;;;;;33.25;22.73;;;5.00;79.50;;;;;;5055956;28;20491;-75
2023/10/17 07:18:44;;;;;;;32.65;23.05;;;5.10;79.50;;;;;;5056053;28;20051;-71
2023/10/17 07:23:43;;;;;;;29.30;21.58;;;5.20;79.10;;;;;;5055429;28;20082;-74
2023/10/17 07:28:54;;;;;;;28.20;20.63;;;5.50;78.50;;;;;;5058387;28;20390;-71
2023/10/17 07:31:22;;;;;;;30.73;22.35;;;5.50;78.10;;;;;;5054654;28;20029;-72
2023/10/17 07:33:53;;;;;;;29.75;21.92;;;5.70;77.30;;;;;;5053197;28;20044;-72
2023/10/17 07:36:19;;;;;;;32.03;19.73;;;5.90;77.30;;;;;;5053847;28;20029;-71
2023/10/17 07:38:45;;;;;;;30.08;18.52;;;6.00;76.40;;;;;;5054491;28;20028;-71
2023/10/17 07:41:14;;;;;;;30.77;18.17;;;6.30;75.90;;;;;;5054297;28;20453;-71
2023/10/17 07:43:46;;;;;;;29.48;17.70;;;6.50;74.70;;;;;;5054454;28;20119;-71
2023/10/17 07:46:18;;;;;;;24.00;18.48;;;6.70;73.80;;;;;;5054165;28;20480;-73
2023/10/17 07:48:50;;;;;;;25.30;18.40;;;6.70;72.30;;;;;;5052836;28;20393;-70
2023/10/17 07:51:16;;;;;;;27.30;19.55;;;6.90;71.50;;;;;;5054248;28;20538;-73
2023/10/17 07:53:46;;;;;;;32.10;18.55;;;6.80;71.30;;;;;;5053525;28;20056;-71
2023/10/17 07:56:21;;;;;;;24.05;18.60;;;6.90;72.10;;;;;;5053788;28;20089;-70
2023/10/17 07:58:56;;;;;;;26.67;18.35;;;6.90;71.30;;;;;;5054066;28;20025;-70
2023/10/17 08:01:32;;;;;;;24.05;18.65;;;6.90;72.40;;;;;;5053834;28;20110;-72
2023/10/17 08:04:13;;;;;;;25.88;17.80;;;6.90;71.80;;;;;;5054250;28;20029;-71
2023/10/17 08:06:39;;;;;;;24.45;17.23;;;7.20;71.60;;;;;;5053493;28;20082;-71
2023/10/17 08:09:16;;;;;;;21.83;16.70;;;7.40;71.20;;;;;;5053139;28;20091;-70
2023/10/17 08:11:42;;;;;;;22.85;16.75;;;7.60;71.10;;;;;;5053477;28;20111;-74
2023/10/17 08:14:09;;;;;;;27.52;19.05;;;7.80;69.90;;;;;;5053193;28;20025;-74
2023/10/17 08:16:39;;;;;;;20.88;16.88;;;8.00;69.00;;;;;;5053207;28;20090;-72
2023/10/17 08:24:44;;;;;;;24.35;17.83;;;8.40;68.10;;;;;;5051703;28;20143;-71
2023/10/17 08:29:49;;;;;;;28.48;18.35;;;8.30;68.70;;;;;;5053425;28;20029;-71
2023/10/17 08:35:19;;;;;;;26.67;17.02;;;8.80;67.00;;;;;;5041773;28;20056;-75
2023/10/17 08:37:45;;;;;;;22.83;16.75;;;9.00;66.10;;;;;;5053150;28;20482;-70
2023/10/17 08:40:31;;;;;;;20.83;16.95;;;8.90;65.30;;;;;;5053252;28;20053;-72
2023/10/17 08:42:59;;;;;;;;;;;8.80;66.40;;;;;;5053494;28;20025;-71
2023/10/17 08:45:26;;;;;;;19.73;15.05;;;9.10;66.30;;;;;;5053137;28;19905;-72
2023/10/17 08:48:00;;;;;;;21.40;16.15;;;9.50;65.90;;;;;;5052869;28;20031;-73
2023/10/17 08:50:26;;;;;;;17.48;15.30;;;9.90;65.20;;;;;;5051769;28;20028;-74
2023/10/17 08:52:53;;;;;;;19.45;16.08;;;10.10;63.00;;;;;;5053018;28;20098;-71
2023/10/17 08:55:21;;;;;;;21.90;15.52;;;10.20;61.60;;;;;;5053272;28;20444;-76
2023/10/17 08:57:46;;;;;;;21.83;15.50;;;10.20;61.30;;;;;;5053047;28;20086;-73
2023/10/17 09:02:48;;;;;;;20.63;16.98;;;10.70;61.90;;;;;;5053386;28;20021;-74
2023/10/17 09:05:27;;;;;;;19.60;15.68;;;11.00;59.60;;;;;;5052814;28;20021;-73
2023/10/17 09:07:57;;;;;;;17.10;15.15;;;11.10;59.10;;;;;;5053086;28;20029;-73
2023/10/17 09:13:40;;;;;;;18.80;15.45;;;11.40;57.10;;;;;;5053184;28;20470;-75
2023/10/17 09:16:11;;;;;;;19.30;16.33;;;11.30;57.30;;;;;;5052966;28;20512;-73
2023/10/17 09:18:47;;;;;;;17.75;15.85;;;11.40;56.90;;;;;;5052654;28;20068;-77
2023/10/17 09:21:14;;;;;;;19.50;16.35;;;11.40;58.10;;;;;;5051837;28;20377;-76
2023/10/17 09:23:41;;;;;;;20.05;16.05;;;11.70;56.40;;;;;;5052851;28;20448;-76
2023/10/17 09:26:10;;;;;;;17.60;14.88;;;11.60;56.90;;;;;;5051354;28;20436;-77
2023/10/17 09:28:36;;;;;;;19.25;15.13;;;11.80;57.00;;;;;;5052879;28;20102;-77
2023/10/17 09:31:08;;;;;;;21.00;16.67;;;12.10;56.40;;;;;;5052755;28;20055;-72
2023/10/17 09:33:43;;;;;;;17.25;15.27;;;12.00;55.70;;;;;;5052528;28;20033;-74
2023/10/17 09:36:10;;;;;;;20.02;16.48;;;12.20;56.30;;;;;;5051513;28;20040;-76
2023/10/17 09:38:43;;;;;;;17.80;15.35;;;12.60;56.30;;;;;;5052384;28;20048;-77
2023/10/17 09:41:11;;;;;;;17.83;15.55;;;12.90;54.30;;;;;;5051521;28;20025;-77
2023/10/17 09:43:38;;;;;;;22.88;15.38;;;12.90;53.90;;;;;;5052594;28;20029;-76
2023/10/17 09:46:09;;;;;;;23.15;15.23;;;13.20;52.30;;;;;;5052743;28;20155;-76
2023/10/17 09:48:36;;;;;;;18.25;14.18;;;13.60;52.40;;;;;;5051635;28;20021;-76
2023/10/17 09:51:03;;;;;;;16.23;13.40;;;14.10;50.40;;;;;;5051943;28;20090;-76
2023/10/17 09:53:35;;;;;;;21.05;14.18;;;14.50;49.30;;;;;;5051050;28;20032;-77
2023/10/17 09:56:07;;;;;;;16.52;13.20;;;14.80;48.80;;;;;;5050529;28;20021;-77
2023/10/17 09:58:37;;;;;;;15.40;13.45;;;15.00;47.80;;;;;;5052751;28;20075;-76
2023/10/17 10:01:09;;;;;;;19.40;13.65;;;15.30;47.40;;;;;;5056117;28;20052;-79
2023/10/17 10:03:36;;;;;;;15.95;12.38;;;15.50;45.90;;;;;;5055803;28;20025;-77
2023/10/17 10:06:30;;;;;;;16.27;13.00;;;15.40;47.00;;;;;;5055079;28;20029;-80
2023/10/17 10:09:24;;;;;;;16.08;13.02;;;15.20;47.10;;;;;;5055044;28;20075;-79
2023/10/17 10:11:50;;;;;;;14.73;12.15;;;15.10;47.80;;;;;;5047800;28;20044;-77
2023/10/17 10:14:36;;;;;;;12.48;11.18;;;15.20;47.10;;;;;;5054951;28;20021;-77
2023/10/17 10:17:03;;;;;;;14.98;11.65;;;15.10;47.70;;;;;;5054749;28;20661;-77
2023/10/17 10:19:41;;;;;;;13.40;11.15;;;15.20;48.10;;;;;;5054313;28;20033;-74
2023/10/17 10:22:12;;;;;;;11.57;10.15;;;15.30;46.00;;;;;;5054783;28;20394;-77
2023/10/17 10:24:39;;;;;;;12.45;8.75;;;15.30;46.20;;;;;;5054311;28;20025;-77
2023/10/17 10:27:23;;;;;;;10.75;9.05;;;15.40;46.30;;;;;;5055768;28;20388;-76
2023/10/17 10:29:54;;;;;;;11.98;9.85;;;15.60;45.70;;;;;;5054665;28;20028;-76
2023/10/17 10:32:29;;;;;;;11.40;9.57;;;15.70;46.10;;;;;;5056068;28;20595;-77
2023/10/17 10:34:55;;;;;;;11.80;9.80;;;15.80;45.80;;;;;;5055513;28;20485;-76
2023/10/17 10:37:22;;;;;;;12.18;9.35;;;15.80;45.00;;;;;;5054251;28;20047;-77
2023/10/17 10:40:30;;;;;;;10.23;9.13;;;16.00;45.60;;;;;;5054611;28;20025;-77
2023/10/17 10:43:01;;;;;;;13.20;9.25;;;16.50;44.90;;;;;;5035467;28;20041;-78
2023/10/17 10:45:35;;;;;;;10.88;8.88;;;16.60;43.90;;;;;;5055755;28;20020;-78
2023/10/17 10:48:15;;;;;;;9.95;8.50;;;16.20;44.10;;;;;;5054466;28;20025;-77
2023/10/17 10:50:59;;;;;;;10.05;8.27;;;16.20;44.30;;;;;;5055610;28;20017;-77
2023/10/17 10:53:31;;;;;;;10.23;8.90;;;16.50;44.40;;;;;;5053999;28;20017;-78
2023/10/17 10:56:15;;;;;;;11.80;9.40;;;16.90;43.80;;;;;;5054252;28;20025;-79
2023/10/17 10:58:55;;;;;;;13.00;9.80;;;17.20;43.50;;;;;;5054203;28;20033;-77
2023/10/17 11:01:22;;;;;;;11.90;8.20;;;17.40;42.80;;;;;;5054189;28;20026;-76
2023/10/17 11:03:49;;;;;;;11.07;8.15;;;17.60;42.90;;;;;;5053423;28;20021;-76
2023/10/17 11:06:25;;;;;;;11.20;9.35;;;17.40;42.40;;;;;;5053863;28;20025;-77
2023/10/17 11:08:53;;;;;;;12.75;8.75;;;17.40;42.80;;;;;;5053561;28;20112;-77
2023/10/17 11:11:19;;;;;;;9.60;8.65;;;17.20;43.00;;;;;;5053195;28;20028;-77
2023/10/17 11:13:47;;;;;;;8.88;7.97;;;17.50;43.60;;;;;;5053779;28;20033;-74
2023/10/17 11:16:20;;;;;;;10.20;8.85;;;17.90;43.30;;;;;;5053636;28;20029;-77
2023/10/17 11:18:46;;;;;;;9.80;8.65;;;18.40;42.90;;;;;;5053942;28;20029;-77
2023/10/17 11:21:12;;;;;;;10.85;8.70;;;18.70;41.90;;;;;;5053788;28;20024;-76
2023/10/17 11:23:50;;;;;;;10.07;8.68;;;19.10;41.10;;;;;;5053637;28;20446;-78
2023/10/17 11:26:19;;;;;;;11.63;8.38;;;19.30;39.80;;;;;;5053493;28;20065;-77
2023/10/17 11:28:52;;;;;;;8.95;8.07;;;19.30;39.90;;;;;;5053488;28;20070;-75
2023/10/17 11:31:25;;;;;;;13.13;9.00;;;19.20;39.60;;;;;;5053574;28;20564;-75
2023/10/17 11:34:07;;;;;;;10.07;9.07;;;19.00;39.30;;;;;;5053758;28;20041;-75
2023/10/17 11:36:45;;;;;;;9.20;7.70;;;19.00;39.50;;;;;;5053447;28;20029;-77
2023/10/17 11:39:15;;;;;;;9.65;8.52;;;19.00;39.80;;;;;;5053373;28;20040;-76
2023/10/17 11:41:53;;;;;;;10.57;7.75;;;18.90;39.90;;;;;;5053402;28;20048;-77
2023/10/17 11:44:23;;;;;;;8.82;7.78;;;19.10;40.90;;;;;;5053584;28;20021;-79
2023/10/17 11:47:07;;;;;;;10.15;7.57;;;19.20;39.90;;;;;;5055533;28;20029;-77
2023/10/17 11:49:41;;;;;;;8.85;7.10;;;19.20;39.50;;;;;;5055513;28;20032;-77
2023/10/17 11:52:13;;;;;;;9.05;7.15;;;19.20;40.20;;;;;;5054551;28;20040;-76
2023/10/17 11:55:03;;;;;;;9.07;7.20;;;18.70;41.00;;;;;;5051751;28;20021;-74
2023/10/17 11:57:31;;;;;;;10.00;6.85;;;18.50;41.30;;;;;;5053238;28;20037;-75
2023/10/17 12:02:47;;;;;;;8.45;7.45;;;17.80;43.20;;;;;;5054192;28;20026;-77
2023/10/17 12:05:27;;;;;;;9.82;7.97;;;17.70;43.70;;;;;;5054199;28;20579;-76
2023/10/17 12:07:53;;;;;;;12.68;9.95;;;17.50;44.30;;;;;;5052824;28;20037;-77
2023/10/17 12:10:20;;;;;;;11.80;10.43;;;17.10;45.80;;;;;;5052745;28;20116;-79
2023/10/17 12:12:46;;;;;;;13.70;10.25;;;16.80;46.60;;;;;;5052876;28;20025;-76
2023/10/17 12:15:20;;;;;;;12.63;9.65;;;16.60;47.60;;;;;;5052764;28;20025;-76
2023/10/17 12:17:48;;;;;;;12.82;11.27;;;16.30;48.20;;;;;;5054371;28;20029;-76
2023/10/17 12:20:13;;;;;;;12.35;11.05;;;16.20;48.50;;;;;;5054115;28;20028;-78
2023/10/17 12:22:40;;;;;;;13.45;11.10;;;16.10;48.70;;;;;;5052653;28;20496;-79
2023/10/17 12:25:09;;;;;;;14.50;10.95;;;16.10;49.20;;;;;;5053775;28;20105;-79
2023/10/17 12:27:35;;;;;;;12.18;10.57;;;15.90;49.60;;;;;;5052110;28;20026;-75
2023/10/17 12:30:01;;;;;;;12.40;11.07;;;15.80;49.90;;;;;;5053338;28;20025;-78
2023/10/17 12:32:27;;;;;;;14.63;11.95;;;15.80;50.40;;;;;;5052204;28;20028;-78
2023/10/17 12:34:54;;;;;;;13.07;11.20;;;15.70;50.70;;;;;;5053335;28;20041;-79
2023/10/17 12:37:20;;;;;;;13.70;11.30;;;15.60;51.70;;;;;;5051676;28;20021;-78
2023/10/17 12:39:47;;;;;;;13.20;11.18;;;15.50;52.30;;;;;;5052099;28;20032;-79
2023/10/17 12:42:12;;;;;;;13.07;10.68;;;15.40;53.20;;;;;;5052149;28;20023;-77
2023/10/17 12:44:38;;;;;;;15.15;12.18;;;15.30;52.40;;;;;;5053069;28;20442;-73
2023/10/17 12:47:04;;;;;;;14.02;11.02;;;15.10;53.40;;;;;;5053219;28;20025;-75
2023/10/17 12:49:30;;;;;;;13.10;10.43;;;14.90;54.00;;;;;;5051989;28;20535;-73
2023/10/17 12:51:57;;;;;;;10.75;9.65;;;14.80;54.20;;;;;;5053228;28;20369;-75
2023/10/17 12:54:26;;;;;;;15.85;10.73;;;14.80;54.20;;;;;;5052105;28;20458;-71
2023/10/17 12:56:52;;;;;;;11.55;10.30;;;14.80;54.50;;;;;;5052765;28;20017;-74
2023/10/17 12:59:18;;;;;;;15.10;11.07;;;14.70;55.20;;;;;;5052892;28;20113;-72
2023/10/17 13:01:44;;;;;;;14.15;11.25;;;14.50;55.20;;;;;;5052797;28;20203;-74
2023/10/17 13:04:13;;;;;;;12.85;10.90;;;14.50;55.20;;;;;;5052194;28;20025;-78
2023/10/17 13:06:41;;;;;;;12.27;10.98;;;14.40;55.90;;;;;;5050831;28;20051;-76
2023/10/17 13:09:07;;;;;;;13.30;11.05;;;14.50;55.90;;;;;;5052627;28;20078;-78
2023/10/17 13:11:33;;;;;;;13.00;10.68;;;14.40;56.20;;;;;;5051144;28;20481;-78
2023/10/17 13:13:58;;;;;;;17.52;11.45;;;14.40;56.00;;;;;;5051439;28;20147;-80
2023/10/17 13:16:26;;;;;;;15.07;11.15;;;14.40;55.80;;;;;;5052715;28;20492;-77
2023/10/17 13:18:56;;;;;;;14.13;10.88;;;14.30;56.00;;;;;;5051688;28;20033;-76
2023/10/17 13:21:22;;;;;;;15.38;11.15;;;14.40;55.80;;;;;;5051379;28;20032;-73
2023/10/17 13:23:48;;;;;;;15.70;11.93;;;14.30;55.70;;;;;;5052516;28;20029;-75
2023/10/17 13:26:22;;;;;;;13.30;11.13;;;14.20;56.00;;;;;;5051402;28;20017;-77
2023/10/17 13:28:47;;;;;;;13.05;11.05;;;14.30;56.20;;;;;;5052715;28;20025;-76
2023/10/17 13:31:16;;;;;;;15.15;11.95;;;14.40;55.40;;;;;;5052637;28;20504;-76
2023/10/17 13:33:43;;;;;;;12.98;11.52;;;14.40;55.30;;;;;;5053638;28;20611;-72
2023/10/17 13:36:16;;;;;;;14.27;11.55;;;14.40;55.40;;;;;;5056607;28;20060;-75
2023/10/17 13:38:43;;;;;;;14.10;12.60;;;14.50;54.70;;;;;;5056268;28;20087;-79
2023/10/17 13:41:10;;;;;;;13.90;11.98;;;14.50;54.70;;;;;;5055311;28;20075;-72
2023/10/17 13:43:38;;;;;;;12.20;10.70;;;14.60;54.70;;;;;;5054907;28;20056;-71
2023/10/17 13:46:14;;;;;;;12.70;11.32;;;14.70;54.30;;;;;;5054856;28;20025;-72
2023/10/17 13:48:49;;;;;;;13.02;10.98;;;15.10;53.80;;;;;;5056024;28;20436;-71
2023/10/17 13:51:17;;;;;;;12.60;10.20;;;15.60;52.00;;;;;;5052546;28;20029;-72
2023/10/17 13:53:46;;;;;;;13.90;10.45;;;16.30;50.30;;;;;;5056206;28;20472;-72
2023/10/17 13:56:18;;;;;;;12.13;9.60;;;17.10;48.10;;;;;;5054692;28;20113;-73
2023/10/17 13:58:50;;;;;;;14.40;10.50;;;17.90;45.70;;;;;;5056048;28;20345;-78
2023/10/17 14:01:31;;;;;;;14.45;11.32;;;18.70;43.60;;;;;;5055438;28;20021;-78
2023/10/17 14:03:58;;;;;;;16.95;11.10;;;19.30;40.90;;;;;;5056385;28;20477;-77
2023/10/17 14:06:27;;;;;;;14.05;10.90;;;20.00;39.70;;;;;;5056617;28;20071;-77
2023/10/17 14:08:55;;;;;;;10.77;9.55;;;20.40;38.60;;;;;;5056341;28;20029;-73
2023/10/17 14:11:21;;;;;;;10.55;8.82;;;21.30;37.30;;;;;;5056143;28;20156;-75
2023/10/17 14:13:49;;;;;;;10.20;9.10;;;22.40;35.00;;;;;;5056068;28;20491;-72
2023/10/17 14:16:15;;;;;;;12.45;9.65;;;23.30;32.80;;;;;;5055647;28;20033;-74
2023/10/17 14:18:44;;;;;;;10.18;8.50;;;24.40;30.60;;;;;;5055646;28;20424;-76
2023/10/17 14:24:06;;;;;;;10.95;8.73;;;24.80;28.10;;;;;;5055948;28;20082;-77
2023/10/17 14:26:33;;;;;;;12.00;8.93;;;24.40;29.30;;;;;;5054444;28;20112;-77
2023/10/17 14:29:03;;;;;;;11.98;9.93;;;24.10;30.40;;;;;;5054727;28;20048;-77
2023/10/17 14:31:29;;;;;;;11.82;10.02;;;23.20;31.70;;;;;;5054409;28;20032;-77
2023/10/17 14:33:59;;;;;;;11.75;9.77;;;22.90;32.40;;;;;;5055099;28;20041;-76
2023/10/17 14:36:26;;;;;;;8.98;8.07;;;22.90;32.50;;;;;;5054441;28;20045;-75
2023/10/17 14:38:53;;;;;;;9.70;8.32;;;23.70;31.70;;;;;;5055626;28;20037;-76
2023/10/17 14:41:18;;;;;;;8.25;7.15;;;24.80;30.00;;;;;;5054183;28;20025;-75
2023/10/17 14:43:46;;;;;;;8.10;7.30;;;26.10;27.80;;;;;;5054133;28;20393;-73
2023/10/17 14:46:12;;;;;;;9.40;8.40;;;27.30;25.30;;;;;;5055649;28;20028;-76
2023/10/17 14:48:39;;;;;;;10.70;8.75;;;27.90;22.90;;;;;;5054298;28;20111;-76
2023/10/17 14:51:05;;;;;;;9.18;7.90;;;28.30;21.80;;;;;;5055441;28;20103;-75
2023/10/17 14:53:30;;;;;;;10.93;9.30;;;28.60;21.40;;;;;;5053592;28;20454;-76
2023/10/17 14:55:57;;;;;;;10.50;8.25;;;28.90;20.40;;;;;;5053390;28;20024;-74
2023/10/17 14:58:23;;;;;;;10.02;6.90;;;28.90;20.60;;;;;;5054618;28;20497;-78
2023/10/17 15:00:49;;;;;;;8.57;7.40;;;28.90;20.80;;;;;;5054532;28;20036;-78
2023/10/17 15:03:14;;;;;;;7.57;6.60;;;28.70;21.00;;;;;;5053241;28;20028;-75
2023/10/17 15:05:40;;;;;;;9.43;7.82;;;28.30;22.20;;;;;;5054625;28;20027;-77
2023/10/17 15:08:06;;;;;;;8.20;7.20;;;27.60;22.80;;;;;;5053029;28;20024;-77
2023/10/17 15:10:33;;;;;;;9.05;6.88;;;26.80;24.10;;;;;;5051578;28;20296;-77
2023/10/17 15:12:59;;;;;;;9.25;7.35;;;26.00;25.90;;;;;;5053039;28;20020;-76
2023/10/17 15:15:24;;;;;;;9.10;7.75;;;25.60;26.70;;;;;;5054449;28;20481;-79
2023/10/17 15:17:50;;;;;;;9.57;7.68;;;25.30;27.60;;;;;;5053158;28;20089;-78
2023/10/17 15:20:16;;;;;;;10.13;7.88;;;25.10;28.30;;;;;;5052946;28;20025;-77